createdAt,value
2017-05-23T00:00:19.747Z,17.90
2017-05-23T00:02:46.681Z,18.00
2017-05-23T00:05:13.644Z,17.90
2017-05-23T00:07:40.583Z,17.90
2017-05-23T00:10:07.515Z,17.80
2017-05-23T00:12:34.424Z,17.80
2017-05-23T00:15:01.394Z,17.70
2017-05-23T00:17:28.374Z,17.60
2017-05-23T00:19:55.338Z,17.50
2017-05-23T00:22:22.335Z,17.50
2017-05-23T00:24:49.279Z,17.60
2017-05-23T00:27:19.204Z,17.60
2017-05-23T00:29:46.129Z,17.60
2017-05-23T00:32:13.112Z,17.60
2017-05-23T00:34:42.524Z,17.70
2017-05-23T00:37:09.483Z,17.60
2017-05-23T00:39:36.428Z,17.60
2017-05-23T00:42:03.366Z,17.60
2017-05-23T00:44:29.878Z,17.60
2017-05-23T00:46:56.843Z,17.60
2017-05-23T00:49:23.774Z,17.60
2017-05-23T00:51:51.500Z,17.50
2017-05-23T00:54:18.450Z,17.60
2017-05-23T00:56:45.354Z,17.60
2017-05-23T00:59:11.902Z,17.50
2017-05-23T01:01:38.870Z,17.60
2017-05-23T01:04:06.609Z,17.50
2017-05-23T01:06:33.553Z,17.50
2017-05-23T01:09:00.720Z,17.50
2017-05-23T01:11:27.673Z,17.40
2017-05-23T01:13:54.577Z,17.30
2017-05-23T01:16:21.562Z,17.30
2017-05-23T01:18:49.921Z,17.30
2017-05-23T01:21:16.882Z,17.30
2017-05-23T01:23:43.864Z,17.20
2017-05-23T01:26:10.775Z,17.00
2017-05-23T01:28:38.595Z,17.10
2017-05-23T01:31:05.545Z,17.20
2017-05-23T01:33:32.494Z,17.20
2017-05-23T01:36:00.423Z,17.30
2017-05-23T01:38:29.432Z,17.30
2017-05-23T01:40:56.616Z,17.40
2017-05-23T01:43:23.553Z,17.40
2017-05-23T01:45:50.486Z,17.40
2017-05-23T01:48:17.411Z,17.30
2017-05-23T01:50:48.028Z,17.20
2017-05-23T01:53:14.981Z,17.10
2017-05-23T01:55:41.880Z,17.00
2017-05-23T01:58:08.874Z,16.90
2017-05-23T02:00:35.835Z,16.80
2017-05-23T02:03:02.718Z,16.80
2017-05-23T02:05:29.665Z,16.70
2017-05-23T02:07:56.660Z,16.60
2017-05-23T02:10:26.322Z,16.60
2017-05-23T02:12:53.227Z,16.40
2017-05-23T02:15:20.202Z,16.50
2017-05-23T02:17:48.939Z,16.40
2017-05-23T02:20:15.879Z,16.20
2017-05-23T02:22:42.825Z,16.10
2017-05-23T02:25:09.743Z,16.00
2017-05-23T02:27:36.676Z,16.10
2017-05-23T02:30:03.631Z,16.30
2017-05-23T02:32:30.577Z,16.40
2017-05-23T02:34:57.497Z,16.50
2017-05-23T02:37:24.423Z,16.40
2017-05-23T02:39:51.364Z,16.40
2017-05-23T02:42:18.260Z,16.30
2017-05-23T02:44:45.642Z,16.40
2017-05-23T02:47:12.546Z,16.40
2017-05-23T02:49:39.458Z,16.30
2017-05-23T02:52:08.060Z,16.40
2017-05-23T02:54:34.959Z,16.30
2017-05-23T02:57:01.856Z,16.40
2017-05-23T02:59:30.415Z,16.40
2017-05-23T03:01:57.346Z,16.20
2017-05-23T03:04:24.285Z,16.20
2017-05-23T03:06:51.220Z,16.20
2017-05-23T03:09:18.190Z,16.30
2017-05-23T03:11:45.139Z,16.30
2017-05-23T03:14:12.037Z,16.30
2017-05-23T03:16:41.208Z,16.40
2017-05-23T03:19:08.181Z,16.50
2017-05-23T03:21:35.096Z,16.50
2017-05-23T03:24:02.033Z,16.50
2017-05-23T03:26:28.971Z,16.50
2017-05-23T03:28:55.856Z,16.50
2017-05-23T03:31:22.761Z,16.60
2017-05-23T03:33:49.707Z,16.50
2017-05-23T03:36:16.643Z,16.60
2017-05-23T03:38:43.559Z,16.60
2017-05-23T03:41:10.482Z,16.40
2017-05-23T03:43:38.911Z,16.50
2017-05-23T03:46:05.834Z,16.30
2017-05-23T03:48:35.395Z,16.30
2017-05-23T03:51:02.343Z,16.20
2017-05-23T03:53:29.260Z,16.30
2017-05-23T03:55:56.214Z,16.30
2017-05-23T03:58:25.490Z,16.50
2017-05-23T04:00:53.612Z,16.50
2017-05-23T04:03:20.582Z,16.50
2017-05-23T04:05:47.536Z,16.30
2017-05-23T04:08:14.459Z,16.20
2017-05-23T04:10:41.407Z,15.90
2017-05-23T04:13:08.404Z,15.90
2017-05-23T04:15:35.334Z,16.00
2017-05-23T04:18:05.534Z,16.10
2017-05-23T04:20:34.474Z,16.10
2017-05-23T04:23:01.430Z,16.10
2017-05-23T04:25:28.382Z,16.20
2017-05-23T04:27:57.919Z,16.30
2017-05-23T04:30:24.873Z,16.40
2017-05-23T04:32:52.670Z,16.40
2017-05-23T04:35:19.634Z,16.50
2017-05-23T04:37:46.912Z,16.60
2017-05-23T04:40:13.871Z,16.70
2017-05-23T04:42:42.594Z,16.60
2017-05-23T04:45:09.525Z,16.50
2017-05-23T04:47:37.221Z,16.50
2017-05-23T04:50:04.171Z,16.50
2017-05-23T04:52:31.115Z,16.50
2017-05-23T04:54:58.047Z,16.60
2017-05-23T04:57:24.957Z,16.70
2017-05-23T04:59:51.912Z,16.70
2017-05-23T05:02:18.855Z,16.60
2017-05-23T05:04:46.958Z,16.60
2017-05-23T05:07:13.896Z,16.70
2017-05-23T05:09:41.928Z,16.70
2017-05-23T05:12:08.821Z,16.80
2017-05-23T05:14:35.822Z,17.00
2017-05-23T05:17:02.803Z,17.10
2017-05-23T05:19:30.767Z,17.40
2017-05-23T05:21:57.678Z,17.60
2017-05-23T05:24:27.467Z,17.90
2017-05-23T05:26:55.896Z,18.00
2017-05-23T05:29:25.992Z,18.30
2017-05-23T05:31:53.466Z,18.70
2017-05-23T05:34:22.539Z,18.90
2017-05-23T05:36:49.573Z,19.00
2017-05-23T05:39:16.890Z,19.10
2017-05-23T05:41:46.054Z,19.40
2017-05-23T05:44:15.311Z,19.70
2017-05-23T05:46:42.658Z,20.20
2017-05-23T05:49:11.172Z,20.50
2017-05-23T05:51:40.494Z,20.90
2017-05-23T05:54:08.008Z,21.40
2017-05-23T05:56:35.381Z,21.70
2017-05-23T05:59:04.078Z,21.90
2017-05-23T06:01:30.987Z,22.00
2017-05-23T06:03:57.995Z,22.30
2017-05-23T06:06:27.866Z,22.50
2017-05-23T06:08:54.812Z,22.60
2017-05-23T06:11:21.781Z,22.70
2017-05-23T06:13:56.807Z,23.00
2017-05-23T06:16:24.030Z,23.20
2017-05-23T06:18:50.960Z,23.30
2017-05-23T06:21:17.906Z,23.70
2017-05-23T06:23:48.343Z,23.80
2017-05-23T06:36:00.287Z,24.50
2017-05-23T06:38:28.848Z,24.20
2017-05-23T06:40:55.040Z,24.20
2017-05-23T06:43:21.268Z,24.10
2017-05-23T06:45:50.037Z,24.10
2017-05-23T06:48:17.721Z,24.40
2017-05-23T06:50:44.743Z,24.10
2017-05-23T06:53:11.633Z,24.30
2017-05-23T06:55:40.142Z,24.40
2017-05-23T06:58:07.532Z,24.90
2017-05-23T07:00:34.442Z,25.50
2017-05-23T07:03:00.639Z,25.50
2017-05-23T07:05:27.611Z,26.70
2017-05-23T07:07:56.348Z,27.00
2017-05-23T07:10:23.288Z,27.10
2017-05-23T07:12:51.310Z,27.00
2017-05-23T07:15:19.457Z,27.30
2017-05-23T07:17:47.018Z,27.40
2017-05-23T07:20:13.958Z,27.80
2017-05-23T07:22:42.349Z,27.70
2017-05-23T07:25:09.296Z,28.30
2017-05-23T07:27:36.323Z,28.60
2017-05-23T07:30:04.203Z,28.80
2017-05-23T07:32:31.195Z,29.00
2017-05-23T07:34:59.061Z,29.00
2017-05-23T07:37:26.591Z,29.00
2017-05-23T07:39:53.807Z,28.90
2017-05-23T07:42:20.819Z,29.30
2017-05-23T07:44:48.195Z,29.00
2017-05-23T07:47:16.507Z,28.90
2017-05-23T07:49:43.483Z,28.70
2017-05-23T07:52:10.451Z,28.50
2017-05-23T07:54:38.487Z,28.80
2017-05-23T07:57:05.402Z,29.00
2017-05-23T07:59:32.899Z,29.50
2017-05-23T08:02:01.398Z,29.60
2017-05-23T08:14:16.204Z,28.10
2017-05-23T08:16:43.261Z,27.90
2017-05-23T08:19:10.236Z,27.80
2017-05-23T08:21:38.107Z,27.70
2017-05-23T08:24:05.024Z,27.80
2017-05-23T08:26:31.944Z,27.60
2017-05-23T08:28:58.882Z,27.10
2017-05-23T08:31:27.489Z,27.10
2017-05-23T08:33:54.423Z,26.70
2017-05-23T08:36:21.375Z,26.90
2017-05-23T08:38:48.299Z,27.00
2017-05-23T08:41:15.188Z,27.30
2017-05-23T08:43:42.407Z,27.60
2017-05-23T08:46:09.343Z,28.40
2017-05-23T08:48:36.233Z,28.70
2017-05-23T08:51:03.188Z,28.90
2017-05-23T08:53:30.107Z,28.80
2017-05-23T08:55:57.063Z,28.50
2017-05-23T08:58:24.013Z,27.90
2017-05-23T09:00:50.955Z,27.80
2017-05-23T09:03:17.902Z,28.40
2017-05-23T09:05:46.683Z,29.10
2017-05-23T09:08:13.670Z,29.70
2017-05-23T09:10:43.654Z,29.70
2017-05-23T09:13:11.354Z,29.70
2017-05-23T09:15:38.303Z,29.60
2017-05-23T09:18:05.370Z,29.40
2017-05-23T09:20:32.295Z,29.20
2017-05-23T09:22:59.276Z,29.30
2017-05-23T09:25:32.407Z,29.30
2017-05-23T09:27:59.455Z,29.80
2017-05-23T09:30:26.368Z,30.00
2017-05-23T09:32:53.354Z,29.90
2017-05-23T09:35:20.309Z,29.90
2017-05-23T09:37:49.760Z,30.40
2017-05-23T09:40:16.667Z,30.70
2017-05-23T09:42:43.587Z,31.30
2017-05-23T09:45:10.488Z,31.80
2017-05-23T09:47:37.447Z,32.90
2017-05-23T09:50:05.172Z,33.60
2017-05-23T09:52:32.088Z,33.70
2017-05-23T09:54:59.022Z,34.50
2017-05-23T09:57:26.407Z,35.10
2017-05-23T09:59:53.331Z,35.10
2017-05-23T10:02:20.312Z,34.70
2017-05-23T10:04:47.194Z,34.60
2017-05-23T10:07:14.275Z,34.20
2017-05-23T10:09:41.216Z,35.40
2017-05-23T10:12:11.157Z,35.30
2017-05-23T10:14:39.128Z,34.90
2017-05-23T10:17:06.060Z,34.70
2017-05-23T10:19:32.989Z,34.60
2017-05-23T10:22:00.212Z,34.30
2017-05-23T10:24:27.176Z,32.80
2017-05-23T10:26:54.133Z,33.00
2017-05-23T10:29:22.084Z,33.50
2017-05-23T10:31:49.075Z,32.90
2017-05-23T10:34:16.287Z,32.70
2017-05-23T10:36:43.249Z,32.20
2017-05-23T10:39:10.140Z,31.80
2017-05-23T10:41:37.061Z,31.20
2017-05-23T10:44:03.992Z,30.50
2017-05-23T10:46:30.891Z,30.70
2017-05-23T10:48:58.418Z,31.30
2017-05-23T10:51:27.095Z,31.80
2017-05-23T10:53:54.880Z,32.40
2017-05-23T10:56:21.840Z,33.00
2017-05-23T10:58:48.796Z,32.80
2017-05-23T11:01:17.431Z,33.30
2017-05-23T11:03:48.568Z,32.70
2017-05-23T11:06:17.832Z,33.30
2017-05-23T11:08:48.085Z,34.10
2017-05-23T11:11:15.020Z,34.70
2017-05-23T11:13:41.984Z,34.40
2017-05-23T11:16:08.926Z,34.10
2017-05-23T11:18:36.880Z,33.80
2017-05-23T11:21:03.832Z,34.40
2017-05-23T11:23:30.795Z,34.10
2017-05-23T11:25:58.536Z,34.50
2017-05-23T11:28:26.363Z,34.90
2017-05-23T11:30:53.973Z,34.40
2017-05-23T11:33:21.972Z,34.50
2017-05-23T11:35:48.882Z,34.60
2017-05-23T11:38:15.766Z,34.40
2017-05-23T11:40:42.692Z,34.00
2017-05-23T11:43:10.572Z,34.20
2017-05-23T11:45:37.539Z,32.50
2017-05-23T11:48:05.349Z,31.80
2017-05-23T11:50:33.497Z,31.50
2017-05-23T11:53:00.555Z,32.00
2017-05-23T11:55:27.456Z,32.80
2017-05-23T11:57:54.635Z,34.10
2017-05-23T12:00:21.546Z,34.40
2017-05-23T12:02:49.764Z,34.00
2017-05-23T12:05:16.736Z,34.60
2017-05-23T12:07:43.645Z,34.50
2017-05-23T12:10:10.595Z,34.60
2017-05-23T12:12:37.554Z,34.30
2017-05-23T12:15:04.487Z,34.50
2017-05-23T12:17:32.416Z,34.90
2017-05-23T12:19:59.329Z,35.30
2017-05-23T12:22:27.018Z,35.70
2017-05-23T12:24:55.438Z,36.00
2017-05-23T12:27:22.371Z,35.30
2017-05-23T12:29:50.151Z,35.00
2017-05-23T12:32:17.391Z,34.90
2017-05-23T12:34:44.317Z,34.30
2017-05-23T12:37:11.271Z,34.00
2017-05-23T12:39:39.165Z,33.60
2017-05-23T12:42:06.085Z,34.40
2017-05-23T12:44:34.222Z,34.70
2017-05-23T12:47:01.146Z,34.00
2017-05-23T12:49:28.487Z,33.80
2017-05-23T12:51:55.432Z,33.10
2017-05-23T12:54:21.948Z,31.90
2017-05-23T12:56:50.325Z,31.10
2017-05-23T12:59:18.095Z,31.50
2017-05-23T13:01:45.055Z,32.10
2017-05-23T13:04:12.960Z,32.60
2017-05-23T13:06:39.844Z,32.60
2017-05-23T13:09:08.193Z,32.40
2017-05-23T13:11:35.737Z,32.70
2017-05-23T13:14:04.035Z,32.60
2017-05-23T13:16:31.950Z,32.70
2017-05-23T13:19:00.032Z,32.30
2017-05-23T13:21:26.929Z,31.80
2017-05-23T13:23:53.898Z,31.20
2017-05-23T13:26:20.871Z,30.90
2017-05-23T13:28:48.725Z,31.40
2017-05-23T13:31:15.675Z,32.20
2017-05-23T13:33:43.143Z,32.70
2017-05-23T13:36:11.052Z,33.60
2017-05-23T13:38:37.949Z,33.30
2017-05-23T13:41:05.690Z,33.10
2017-05-23T13:43:33.256Z,33.20
2017-05-23T13:46:00.251Z,33.20
2017-05-23T13:48:27.218Z,32.30
2017-05-23T13:50:56.324Z,31.20
2017-05-23T13:53:24.063Z,30.10
2017-05-23T13:55:52.853Z,29.30
2017-05-23T13:58:19.777Z,28.70
2017-05-23T14:00:46.712Z,28.60
2017-05-23T14:03:13.636Z,28.30
2017-05-23T14:05:41.575Z,27.90
2017-05-23T14:08:09.121Z,27.80
2017-05-23T14:10:36.982Z,27.90
2017-05-23T14:13:04.619Z,28.20
2017-05-23T14:15:31.677Z,28.40
2017-05-23T14:18:00.878Z,28.40
2017-05-23T14:20:27.831Z,28.40
2017-05-23T14:22:54.901Z,28.50
2017-05-23T14:25:24.682Z,28.50
2017-05-23T14:27:55.381Z,28.40
2017-05-23T14:30:24.888Z,28.50
2017-05-23T14:32:51.913Z,28.40
2017-05-23T14:35:18.876Z,28.10
2017-05-23T14:37:48.893Z,27.90
2017-05-23T14:40:15.796Z,27.80
2017-05-23T14:42:44.320Z,27.60
2017-05-23T14:45:11.247Z,27.40
2017-05-23T14:47:38.172Z,27.40
2017-05-23T14:50:05.095Z,27.30
2017-05-23T14:52:32.980Z,27.30
2017-05-23T14:54:59.924Z,27.60
2017-05-23T14:57:28.352Z,27.40
2017-05-23T14:59:55.271Z,27.40
2017-05-23T15:02:23.082Z,27.30
2017-05-23T15:04:50.749Z,27.40
2017-05-23T15:07:32.574Z,27.30
2017-05-23T15:09:59.527Z,27.40
2017-05-23T15:12:27.558Z,27.40
2017-05-23T15:14:56.590Z,27.40
2017-05-23T15:17:24.716Z,27.60
2017-05-23T15:19:51.670Z,27.60
2017-05-23T15:22:18.620Z,27.70
2017-05-23T15:24:45.600Z,27.70
2017-05-23T15:27:12.541Z,27.40
2017-05-23T15:29:39.527Z,27.40
2017-05-23T15:32:06.463Z,27.20
2017-05-23T15:34:35.432Z,27.30
2017-05-23T15:37:02.379Z,27.10
2017-05-23T15:39:29.305Z,27.00
2017-05-23T15:41:56.276Z,27.00
2017-05-23T15:44:23.243Z,26.80
2017-05-23T15:46:50.202Z,26.60
2017-05-23T15:49:17.137Z,26.50
2017-05-23T15:51:44.059Z,26.60
2017-05-23T15:54:11.021Z,26.80
2017-05-23T15:56:37.982Z,26.90
2017-05-23T15:59:04.913Z,27.00
2017-05-23T16:01:33.839Z,26.90
2017-05-23T16:04:00.800Z,27.10
2017-05-23T16:06:27.715Z,26.80
2017-05-23T16:08:54.641Z,27.00
2017-05-23T16:11:21.576Z,26.90
2017-05-23T16:13:48.497Z,26.90
2017-05-23T16:16:15.434Z,26.80
2017-05-23T16:18:42.344Z,26.80
2017-05-23T16:21:09.294Z,26.80
2017-05-23T16:23:36.263Z,26.80
2017-05-23T16:26:03.262Z,26.80
2017-05-23T16:28:31.155Z,26.60
2017-05-23T16:30:58.155Z,26.60
2017-05-23T16:33:25.963Z,26.60
2017-05-23T16:35:52.908Z,26.50
2017-05-23T16:38:19.824Z,26.40
2017-05-23T16:40:46.716Z,26.30
2017-05-23T16:43:14.774Z,26.10
2017-05-23T16:45:41.713Z,26.00
2017-05-23T16:48:08.753Z,25.90
2017-05-23T16:50:36.015Z,25.90
2017-05-23T16:53:03.839Z,25.70
2017-05-23T16:55:31.256Z,25.70
2017-05-23T16:57:58.213Z,25.60
2017-05-23T17:00:25.183Z,25.50
2017-05-23T17:02:53.617Z,25.60
2017-05-23T17:05:21.294Z,25.70
2017-05-23T17:07:48.981Z,25.60
2017-05-23T17:10:15.952Z,25.80
2017-05-23T17:12:42.899Z,25.70
2017-05-23T17:15:09.855Z,25.70
2017-05-23T17:17:36.824Z,25.60
2017-05-23T17:20:04.108Z,25.60
2017-05-23T17:22:31.024Z,25.90
2017-05-23T17:24:57.984Z,25.40
2017-05-23T17:27:25.006Z,25.30
2017-05-23T17:29:53.021Z,25.30
2017-05-23T17:32:20.951Z,25.20
2017-05-23T17:34:48.192Z,25.10
2017-05-23T17:37:15.150Z,25.10
2017-05-23T17:39:42.081Z,24.90
2017-05-23T17:42:09.002Z,24.80
2017-05-23T17:44:36.875Z,24.80
2017-05-23T17:47:03.792Z,24.70
2017-05-23T17:49:30.717Z,24.80
2017-05-23T17:51:57.671Z,24.70
2017-05-23T17:54:24.588Z,24.70
2017-05-23T17:56:51.562Z,24.70
2017-05-23T17:59:18.524Z,24.70
2017-05-23T18:01:45.539Z,24.70
2017-05-23T18:04:12.476Z,24.60
2017-05-23T18:06:39.432Z,24.50
2017-05-23T18:09:07.752Z,24.30
2017-05-23T18:11:35.705Z,24.30
2017-05-23T18:14:02.696Z,24.20
2017-05-23T18:16:29.659Z,24.20
2017-05-23T18:28:48.029Z,23.90
2017-05-23T18:31:15.045Z,23.80
2017-05-23T18:33:41.977Z,23.80
2017-05-23T18:36:09.232Z,23.70
2017-05-23T18:38:36.174Z,23.70
2017-05-23T18:41:03.161Z,23.60
2017-05-23T18:43:30.139Z,23.60
2017-05-23T18:45:57.078Z,23.50
2017-05-23T18:48:24.030Z,23.50
2017-05-23T18:50:51.695Z,23.40
2017-05-23T18:53:18.649Z,23.40
2017-05-23T18:55:45.623Z,23.30
2017-05-23T18:58:12.841Z,23.30
2017-05-23T19:00:40.152Z,23.10
2017-05-23T19:03:08.807Z,23.00
2017-05-23T19:05:35.751Z,23.00
2017-05-23T19:08:02.706Z,22.90
2017-05-23T19:10:29.788Z,22.80
2017-05-23T19:12:56.750Z,22.80
2017-05-23T19:15:23.965Z,22.70
2017-05-23T19:17:50.963Z,22.60
2017-05-23T19:20:17.971Z,22.60
2017-05-23T19:22:45.791Z,22.50
2017-05-23T19:25:12.729Z,22.50
2017-05-23T19:27:39.642Z,22.50
2017-05-23T19:30:06.579Z,22.40
2017-05-23T19:32:33.496Z,22.40
2017-05-23T19:35:01.325Z,22.40
2017-05-23T19:37:28.267Z,22.40
2017-05-23T19:39:55.951Z,22.40
2017-05-23T19:42:23.905Z,22.30
2017-05-23T19:44:52.776Z,22.20
2017-05-23T19:47:19.711Z,22.20
2017-05-23T19:49:46.719Z,22.10
2017-05-23T19:52:15.152Z,22.10
2017-05-23T19:54:42.252Z,22.10
2017-05-23T19:57:10.113Z,22.10
2017-05-23T19:59:37.375Z,22.00
2017-05-23T20:02:05.921Z,22.00
2017-05-23T20:04:33.553Z,21.90
2017-05-23T20:07:02.932Z,21.80
2017-05-23T20:09:31.303Z,21.80
2017-05-23T20:11:58.376Z,21.80
2017-05-23T20:14:26.320Z,21.70
2017-05-23T20:16:53.262Z,21.70
2017-05-23T20:19:20.259Z,21.70
2017-05-23T20:21:47.605Z,21.60
2017-05-23T20:24:16.441Z,21.50
2017-05-23T20:26:43.408Z,21.50
2017-05-23T20:29:10.420Z,21.50
2017-05-23T20:34:10.868Z,21.40
2017-05-23T20:36:39.422Z,21.30
2017-05-23T20:39:07.202Z,21.30
2017-05-23T20:41:35.293Z,21.30
2017-05-23T20:44:02.273Z,21.30
2017-05-23T20:46:29.239Z,21.20
2017-05-23T20:48:57.167Z,21.10
2017-05-23T20:51:24.123Z,21.00
2017-05-23T20:53:52.098Z,21.00
2017-05-23T20:56:19.738Z,21.10
2017-05-23T20:58:47.833Z,21.00
2017-05-23T21:01:14.753Z,20.90
2017-05-23T21:03:41.689Z,20.90
2017-05-23T21:06:08.672Z,20.60
2017-05-23T21:08:35.609Z,20.70
2017-05-23T21:11:02.524Z,20.70
2017-05-23T21:13:29.493Z,20.60
2017-05-23T21:15:56.421Z,20.60
2017-05-23T21:18:23.351Z,20.50
2017-05-23T21:20:50.347Z,20.60
2017-05-23T21:23:17.287Z,20.40
2017-05-23T21:25:44.239Z,20.40
2017-05-23T21:28:11.233Z,20.40
2017-05-23T21:30:38.190Z,20.40
2017-05-23T21:33:05.129Z,20.40
2017-05-23T21:35:32.073Z,20.40
2017-05-23T21:37:59.004Z,20.30
2017-05-23T21:40:25.949Z,20.30
2017-05-23T21:42:52.841Z,20.30
2017-05-23T21:45:19.816Z,20.30
2017-05-23T21:47:46.754Z,20.20
2017-05-23T21:50:13.667Z,20.20
2017-05-23T21:52:40.630Z,20.20
2017-05-23T21:55:07.546Z,20.10
2017-05-23T21:57:34.495Z,19.90
2017-05-23T22:00:01.669Z,19.80
2017-05-23T22:02:28.610Z,19.70
2017-05-23T22:04:55.577Z,19.70
2017-05-23T22:07:22.160Z,19.70
2017-05-23T22:09:50.291Z,19.70
2017-05-23T22:12:17.370Z,19.50
2017-05-23T22:14:46.767Z,19.40
2017-05-23T22:17:13.674Z,19.30
2017-05-23T22:19:40.722Z,19.40
2017-05-23T22:22:07.731Z,19.40
2017-05-23T22:24:34.667Z,19.40
2017-05-23T22:27:01.973Z,19.30
2017-05-23T22:29:28.887Z,19.20
2017-05-23T22:31:55.870Z,19.30
2017-05-23T22:34:22.795Z,19.10
2017-05-23T22:36:49.727Z,19.20
2017-05-23T22:39:16.650Z,19.20
2017-05-23T22:41:44.467Z,19.20
2017-05-23T22:44:11.403Z,19.20
2017-05-23T22:46:38.307Z,19.10
2017-05-23T22:49:05.871Z,18.90
2017-05-23T22:51:32.814Z,19.00
2017-05-23T22:53:59.786Z,19.00
2017-05-23T22:56:26.761Z,19.10
2017-05-23T22:58:53.713Z,19.00
2017-05-23T23:01:20.728Z,19.00
2017-05-23T23:03:47.652Z,18.90
2017-05-23T23:06:14.606Z,18.90
2017-05-23T23:08:42.240Z,18.80
2017-05-23T23:11:09.191Z,18.80
2017-05-23T23:13:36.229Z,18.80
2017-05-23T23:16:03.167Z,18.80
2017-05-23T23:18:30.185Z,18.80
2017-05-23T23:20:57.136Z,18.60
2017-05-23T23:23:24.062Z,18.60
2017-05-23T23:25:50.969Z,18.70
2017-05-23T23:28:17.882Z,18.70
2017-05-23T23:30:44.849Z,18.60
2017-05-23T23:33:12.788Z,18.60
2017-05-23T23:35:39.702Z,18.60
2017-05-23T23:38:07.478Z,18.40
2017-05-23T23:40:34.403Z,18.50
2017-05-23T23:43:01.339Z,18.50
2017-05-23T23:45:28.304Z,18.50
2017-05-23T23:47:55.197Z,18.50
2017-05-23T23:50:23.100Z,18.50
2017-05-23T23:52:50.979Z,18.50
2017-05-23T23:55:17.883Z,18.40
2017-05-23T23:57:44.838Z,18.50
